createdAt,value
2019-03-23T00:01:52.365Z,13.10
2019-03-23T00:05:50.973Z,11.80
2019-03-23T00:09:51.194Z,9.97
2019-03-23T00:13:50.086Z,24.87
2019-03-23T00:17:48.643Z,17.47
2019-03-23T00:21:47.324Z,12.50
2019-03-23T00:25:46.321Z,13.37
2019-03-23T00:29:44.899Z,20.40
2019-03-23T00:33:43.477Z,19.40
2019-03-23T00:37:41.945Z,17.80
2019-03-23T00:41:40.537Z,27.00
2019-03-23T00:45:39.145Z,24.30
2019-03-23T00:49:37.704Z,28.90
2019-03-23T00:53:36.249Z,30.63
2019-03-23T00:57:34.754Z,32.70
2019-03-23T01:01:33.383Z,32.60
2019-03-23T01:05:31.949Z,35.63
2019-03-23T01:09:30.898Z,31.03
2019-03-23T01:13:29.506Z,36.40
2019-03-23T01:17:28.086Z,39.40
2019-03-23T01:21:26.934Z,43.53
2019-03-23T01:25:25.566Z,41.93
2019-03-23T01:29:24.059Z,47.80
2019-03-23T01:33:22.982Z,47.03
2019-03-23T01:37:22.670Z,44.53
2019-03-23T01:41:21.157Z,42.03
2019-03-23T01:45:19.715Z,46.07
2019-03-23T01:49:18.251Z,46.07
2019-03-23T01:53:18.931Z,47.97
2019-03-23T01:57:17.711Z,41.70
2019-03-23T02:01:16.382Z,50.97
2019-03-23T02:05:15.076Z,59.23
2019-03-23T02:09:13.569Z,73.27
2019-03-23T02:13:12.206Z,84.73
2019-03-23T02:17:10.769Z,82.97
2019-03-23T02:21:09.327Z,81.57
2019-03-23T02:25:09.819Z,78.53
2019-03-23T02:29:08.381Z,73.80
2019-03-23T02:33:06.890Z,80.87
2019-03-23T02:37:05.804Z,82.07
2019-03-23T02:41:04.700Z,83.80
2019-03-23T02:45:04.515Z,83.23
2019-03-23T02:49:03.111Z,90.93
2019-03-23T02:53:01.637Z,93.47
2019-03-23T02:57:00.207Z,101.50
2019-03-23T03:01:00.563Z,99.53
2019-03-23T03:04:59.107Z,105.67
2019-03-23T03:08:57.671Z,114.00
2019-03-23T03:12:56.327Z,111.37
2019-03-23T03:16:54.874Z,115.80
2019-03-23T03:20:53.811Z,134.57
2019-03-23T03:24:52.355Z,126.90
2019-03-23T03:28:50.942Z,136.70
2019-03-23T03:32:49.797Z,144.33
2019-03-23T03:36:48.338Z,137.90
2019-03-23T03:40:46.914Z,149.00
2019-03-23T03:44:45.475Z,121.20
2019-03-23T03:48:44.061Z,148.20
2019-03-23T03:52:42.600Z,151.50
2019-03-23T03:56:41.224Z,149.23
2019-03-23T04:00:39.737Z,137.43
2019-03-23T04:04:38.235Z,172.97
2019-03-23T04:08:36.823Z,171.97
2019-03-23T04:12:35.340Z,135.37
2019-03-23T04:16:33.932Z,118.80
2019-03-23T04:20:32.632Z,173.80
2019-03-23T04:24:31.231Z,136.90
2019-03-23T04:28:29.750Z,204.23
2019-03-23T04:32:28.610Z,198.07
2019-03-23T04:36:27.173Z,184.20
2019-03-23T04:40:25.671Z,181.37
2019-03-23T04:44:24.232Z,194.43
2019-03-23T04:48:23.191Z,192.67
2019-03-23T04:52:21.747Z,199.20
2019-03-23T04:56:20.299Z,195.73
2019-03-23T05:00:20.154Z,209.43
2019-03-23T05:04:18.680Z,224.97
2019-03-23T05:08:17.167Z,170.20
2019-03-23T05:12:15.757Z,205.57
2019-03-23T05:16:14.304Z,210.43
2019-03-23T05:20:15.895Z,205.70
2019-03-23T05:24:14.476Z,202.10
2019-03-23T05:28:13.015Z,232.43
2019-03-23T05:32:12.056Z,229.87
2019-03-23T05:36:10.616Z,233.27
2019-03-23T05:40:09.503Z,235.97
2019-03-23T05:44:09.536Z,225.10
2019-03-23T05:48:08.079Z,241.10
2019-03-23T05:52:06.592Z,243.57
2019-03-23T05:56:05.225Z,269.00
2019-03-23T06:00:06.483Z,263.73
2019-03-23T06:04:08.760Z,262.20
2019-03-23T06:08:07.312Z,239.03
2019-03-23T06:12:06.160Z,235.70
2019-03-23T06:16:04.784Z,270.07
2019-03-23T06:20:04.910Z,254.83
2019-03-23T06:24:03.421Z,257.00
2019-03-23T06:28:02.496Z,262.33
2019-03-23T06:32:01.065Z,239.50
2019-03-23T06:36:01.354Z,241.27
2019-03-23T06:39:59.911Z,229.40
2019-03-23T06:43:58.464Z,234.77
2019-03-23T06:47:56.956Z,214.53
2019-03-23T06:51:57.295Z,212.17
2019-03-23T06:55:55.822Z,208.73
2019-03-23T06:59:54.398Z,195.13
2019-03-23T07:03:52.940Z,195.83
2019-03-23T07:07:51.431Z,203.57
2019-03-23T07:11:50.005Z,184.10
2019-03-23T07:15:54.770Z,195.37
2019-03-23T07:19:56.577Z,199.60
2019-03-23T07:23:58.344Z,189.57
2019-03-23T07:27:56.840Z,179.70
2019-03-23T07:32:05.488Z,189.97
2019-03-23T07:35:55.649Z,170.60
2019-03-23T07:39:55.217Z,173.93
2019-03-23T07:43:53.755Z,164.90
2019-03-23T07:47:53.507Z,175.13
2019-03-23T07:51:52.051Z,170.60
2019-03-23T07:55:54.338Z,144.33
2019-03-23T07:59:52.632Z,170.97
2019-03-23T08:03:51.225Z,177.93
2019-03-23T08:07:49.751Z,174.60
2019-03-23T08:11:48.583Z,166.80
2019-03-23T08:15:47.136Z,164.30
2019-03-23T08:19:45.704Z,167.97
2019-03-23T08:23:44.281Z,152.93
2019-03-23T08:27:42.843Z,151.77
2019-03-23T08:31:41.791Z,183.80
2019-03-23T08:35:40.358Z,168.80
2019-03-23T08:39:48.626Z,167.37
2019-03-23T08:43:47.714Z,164.90
2019-03-23T08:47:46.265Z,165.83
2019-03-23T08:51:44.835Z,165.10
2019-03-23T08:55:43.417Z,167.87
2019-03-23T08:59:41.962Z,156.83
2019-03-23T09:03:40.546Z,158.17
2019-03-23T09:07:39.115Z,145.93
2019-03-23T09:11:37.935Z,155.57
2019-03-23T09:15:36.510Z,159.37
2019-03-23T09:19:35.086Z,143.93
2019-03-23T09:23:33.742Z,148.07
2019-03-23T09:27:32.328Z,152.60
2019-03-23T09:31:30.896Z,155.93
2019-03-23T09:35:29.453Z,147.63
2019-03-23T09:39:38.565Z,165.50
2019-03-23T09:43:37.110Z,144.37
2019-03-23T09:47:35.684Z,154.17
2019-03-23T09:51:34.235Z,150.93
2019-03-23T09:55:34.902Z,148.80
2019-03-23T09:59:33.847Z,138.03
2019-03-23T10:03:32.362Z,158.63
2019-03-23T10:07:30.914Z,142.80
2019-03-23T10:11:31.131Z,141.30
2019-03-23T10:15:29.693Z,144.47
2019-03-23T10:19:28.200Z,132.97
2019-03-23T10:23:26.778Z,151.63
2019-03-23T10:27:28.492Z,163.30
2019-03-23T10:31:27.397Z,148.07
2019-03-23T10:35:26.026Z,156.13
2019-03-23T10:39:26.195Z,148.37
2019-03-23T10:43:24.854Z,144.80
2019-03-23T10:47:23.520Z,166.15
2019-03-23T10:51:22.869Z,157.40
2019-03-23T10:55:22.937Z,137.37
2019-03-23T10:59:21.536Z,130.60
2019-03-23T11:03:20.791Z,132.30
2019-03-23T11:07:19.346Z,132.07
2019-03-23T11:11:17.990Z,124.20
2019-03-23T11:15:16.635Z,103.60
2019-03-23T11:19:17.719Z,127.53
2019-03-23T11:23:16.416Z,103.47
2019-03-23T11:27:14.967Z,114.77
2019-03-23T11:31:13.583Z,110.50
2019-03-23T11:35:13.185Z,105.30
2019-03-23T11:39:12.051Z,96.47
2019-03-23T11:43:10.635Z,102.10
2019-03-23T11:47:09.181Z,96.07
2019-03-23T11:51:07.681Z,88.27
2019-03-23T11:55:07.822Z,83.10
2019-03-23T11:59:06.745Z,108.60
2019-03-23T12:03:05.385Z,86.73
2019-03-23T12:07:15.163Z,100.77
2019-03-23T12:11:06.671Z,93.47
2019-03-23T12:15:10.710Z,88.70
2019-03-23T12:19:09.258Z,91.43
2019-03-23T12:23:07.827Z,85.80
2019-03-23T12:27:06.409Z,88.47
2019-03-23T12:31:04.979Z,82.07
2019-03-23T12:35:04.615Z,87.43
2019-03-23T12:39:04.755Z,82.50
2019-03-23T12:43:03.322Z,75.43
2019-03-23T12:47:01.822Z,79.43
2019-03-23T12:51:00.406Z,71.97
2019-03-23T12:55:01.922Z,68.73
2019-03-23T12:59:00.827Z,66.97
2019-03-23T13:02:59.875Z,72.33
2019-03-23T13:06:59.451Z,73.83
2019-03-23T13:10:57.982Z,75.93
2019-03-23T13:14:56.488Z,75.17
2019-03-23T13:18:55.076Z,79.50
2019-03-23T13:22:53.944Z,80.23
2019-03-23T13:26:52.489Z,80.43
2019-03-23T13:30:51.006Z,65.30
2019-03-23T13:34:49.586Z,72.40
2019-03-23T13:38:48.164Z,63.90
2019-03-23T13:42:46.705Z,72.80
2019-03-23T13:46:45.212Z,69.07
2019-03-23T13:50:43.785Z,63.47
2019-03-23T13:54:42.348Z,65.27
2019-03-23T13:58:40.985Z,68.53
2019-03-23T14:02:39.533Z,56.00
2019-03-23T14:06:39.276Z,64.37
2019-03-23T14:10:38.543Z,73.90
2019-03-23T14:14:37.109Z,65.97
2019-03-23T14:18:40.034Z,63.10
2019-03-23T14:22:38.599Z,53.37
2019-03-23T14:26:37.171Z,63.43
2019-03-23T14:30:35.955Z,57.67
2019-03-23T14:34:34.526Z,63.50
2019-03-23T14:38:33.906Z,58.33
2019-03-23T14:42:32.484Z,78.07
2019-03-23T14:46:31.404Z,73.10
2019-03-23T14:50:29.962Z,55.43
2019-03-23T14:54:28.530Z,67.87
2019-03-23T14:58:27.444Z,75.20
2019-03-23T15:02:26.273Z,69.80
2019-03-23T15:06:25.189Z,75.37
2019-03-23T15:10:24.006Z,73.40
2019-03-23T15:14:22.897Z,72.67
2019-03-23T15:18:21.368Z,73.43
2019-03-23T15:22:20.330Z,71.73
2019-03-23T15:26:18.920Z,74.97
2019-03-23T15:30:17.495Z,80.03
2019-03-23T15:34:16.045Z,76.53
2019-03-23T15:38:14.551Z,71.03
2019-03-23T15:42:13.151Z,78.77
2019-03-23T15:46:11.729Z,75.83
2019-03-23T15:50:11.129Z,79.27
2019-03-23T15:54:09.624Z,78.03
2019-03-23T15:58:09.160Z,76.33
2019-03-23T16:02:07.733Z,80.97
2019-03-23T16:06:06.312Z,72.23
2019-03-23T16:10:07.226Z,78.90
2019-03-23T16:14:05.795Z,71.93
2019-03-23T16:18:04.363Z,76.90
2019-03-23T16:22:02.941Z,64.00
2019-03-23T16:26:02.310Z,68.03
2019-03-23T16:30:01.229Z,69.77
2019-03-23T16:34:00.490Z,59.80
2019-03-23T16:38:05.141Z,68.70
2019-03-23T16:42:04.067Z,73.03
2019-03-23T16:46:04.639Z,80.30
2019-03-23T16:50:04.308Z,75.07
2019-03-23T16:54:03.725Z,71.53
2019-03-23T16:58:02.616Z,74.03
2019-03-23T17:02:04.380Z,91.40
2019-03-23T17:06:03.568Z,86.63
2019-03-23T17:10:02.073Z,89.87
2019-03-23T17:14:00.652Z,72.10
2019-03-23T17:17:59.197Z,81.77
2019-03-23T17:21:57.713Z,81.13
2019-03-23T17:25:56.268Z,86.00
2019-03-23T17:29:54.859Z,73.57
2019-03-23T17:33:53.422Z,95.87
2019-03-23T17:37:51.973Z,80.67
2019-03-23T17:41:51.300Z,86.80
2019-03-23T17:45:54.340Z,81.10
2019-03-23T17:49:52.881Z,82.67
2019-03-23T17:53:58.778Z,82.13
2019-03-23T17:57:59.556Z,82.53
2019-03-23T18:01:58.111Z,78.13
2019-03-23T18:05:56.713Z,74.87
2019-03-23T18:09:58.617Z,80.20
2019-03-23T18:13:57.205Z,85.67
2019-03-23T18:18:00.119Z,88.13
2019-03-23T18:21:58.744Z,84.20
2019-03-23T18:25:58.290Z,92.13
2019-03-23T18:29:56.821Z,89.63
2019-03-23T18:33:55.414Z,79.90
2019-03-23T18:38:00.655Z,95.77
2019-03-23T18:41:59.520Z,107.63
2019-03-23T18:45:58.113Z,95.73
2019-03-23T18:49:56.666Z,96.10
2019-03-23T18:53:55.563Z,98.23
2019-03-23T18:57:54.332Z,100.93
2019-03-23T19:01:53.484Z,96.73
2019-03-23T19:05:52.036Z,95.90
2019-03-23T19:09:53.739Z,86.17
2019-03-23T19:13:52.323Z,81.07
2019-03-23T19:17:50.827Z,74.87
2019-03-23T19:21:49.412Z,70.63
2019-03-23T19:25:47.951Z,79.37
2019-03-23T19:29:46.553Z,69.30
2019-03-23T19:33:45.130Z,43.10
2019-03-23T19:37:45.343Z,36.50
2019-03-23T19:41:43.910Z,35.67
2019-03-23T19:45:44.167Z,29.17
2019-03-23T19:49:42.710Z,31.43
2019-03-23T19:53:41.241Z,29.87
2019-03-23T19:57:39.739Z,35.37
2019-03-23T20:01:38.228Z,35.13
2019-03-23T20:05:36.797Z,32.63
2019-03-23T20:09:35.496Z,33.70
2019-03-23T20:13:34.114Z,36.07
2019-03-23T20:17:32.692Z,28.90
2019-03-23T20:21:31.270Z,37.13
2019-03-23T20:25:29.814Z,30.80
2019-03-23T20:29:29.859Z,29.23
2019-03-23T20:33:28.355Z,32.43
2019-03-23T20:37:26.937Z,33.77
2019-03-23T20:41:30.233Z,33.60
2019-03-23T20:45:30.010Z,30.37
2019-03-23T20:49:28.690Z,33.70
2019-03-23T20:53:27.375Z,29.07
2019-03-23T20:57:25.905Z,35.23
2019-03-23T21:01:24.751Z,26.10
2019-03-23T21:05:33.138Z,29.50
2019-03-23T21:09:23.614Z,31.10
2019-03-23T21:13:22.187Z,29.50
2019-03-23T21:17:20.763Z,24.30
2019-03-23T21:21:19.322Z,27.67
2019-03-23T21:25:21.983Z,29.53
2019-03-23T21:29:20.546Z,25.33
2019-03-23T21:33:20.347Z,24.27
2019-03-23T21:37:18.885Z,22.53
2019-03-23T21:41:17.417Z,21.23
2019-03-23T21:45:34.072Z,21.57
2019-03-23T21:49:32.686Z,20.77
2019-03-23T21:53:31.251Z,22.43
2019-03-23T21:57:45.131Z,23.30
2019-03-23T22:01:43.708Z,20.83
2019-03-23T22:05:42.322Z,24.60
2019-03-23T22:09:50.776Z,20.00
2019-03-23T22:13:49.342Z,19.03
2019-03-23T22:17:47.903Z,19.37
2019-03-23T22:21:48.169Z,25.10
2019-03-23T22:25:48.625Z,20.37
2019-03-23T22:29:47.113Z,22.43
2019-03-23T22:33:45.603Z,14.70
2019-03-23T22:37:44.145Z,16.33
2019-03-23T22:41:42.646Z,21.00
2019-03-23T22:45:43.723Z,19.97
2019-03-23T22:49:49.307Z,16.67
2019-03-23T22:53:47.830Z,21.40
2019-03-23T22:57:46.421Z,17.50
2019-03-23T23:01:46.765Z,19.63
2019-03-23T23:05:45.321Z,18.40
2019-03-23T23:09:43.813Z,25.07
2019-03-23T23:13:42.387Z,22.13
2019-03-23T23:17:40.945Z,16.37
2019-03-23T23:21:39.437Z,17.53
2019-03-23T23:25:43.851Z,17.90
2019-03-23T23:29:42.385Z,23.73
2019-03-23T23:33:40.876Z,17.30
2019-03-23T23:37:42.488Z,20.07
2019-03-23T23:41:41.026Z,19.27
2019-03-23T23:45:39.666Z,21.13
2019-03-23T23:49:38.200Z,13.23
2019-03-23T23:53:39.850Z,20.10
2019-03-23T23:57:38.481Z,16.43
